This is the latest recevied weather packets stored in our database for station/object KQ4TV-2. If no packets are shown the sender has not sent any weather packets the latest 10 day(s).
| Time | Temp. | Humidity | Pressure | Rain* | Wind** | Luminosity | Snow |
|---|---|---|---|---|---|---|---|
| 1788030481 | 32.22° C | 50% | - | 0 mm | - | - | - |
| 1788030118 | 32.78° C | 49% | - | 0 mm | - | - | - |
| 1788029514 | 32.78° C | 49% | - | 0 mm | - | - | - |
| 1788028064 | 31.67° C | 50% | - | 0 mm | - | - | - |
| 1788023400 | 30.56° C | 59% | - | 0 mm | - | - | - |
| 1788023351 | 30.56° C | 59% | - | 0 mm | - | - | - |
| 1788021741 | 30.56° C | 62% | - | 0 mm | - | - | - |
| 1788021659 | 30.56° C | 62% | - | 0 mm | - | - | - |
| 1788020452 | 30° C | 61% | - | 0 mm | - | - | - |
| 1788019847 | 30° C | 63% | - | 0 mm | - | - | - |
| 1788018639 | 29.44° C | 65% | - | 0 mm | - | - | - |
| 1788006069 | 20° C | 95% | - | 0 mm | - | - | - |
| 1788005465 | 20° C | 95% | - | 0 mm | - | - | - |
| 1788004860 | 19.44° C | 95% | - | 0 mm | - | - | - |
| 1788004256 | 19.44° C | 95% | - | 0 mm | - | - | - |
| 1788003773 | 19.44° C | 95% | - | 0 mm | - | - | - |
| 1788003652 | 19.44° C | 95% | - | 0 mm | - | - | - |
| 1788003410 | 19.44° C | 95% | - | 0 mm | - | - | - |
| 1788002202 | 18.89° C | 95% | - | 0 mm | - | - | - |
| 1788001597 | 19.44° C | 95% | - | 0 mm | - | - | - |
| 1788001235 | 18.89° C | 95% | - | 0 mm | - | - | - |
| 1788000631 | 18.89° C | 95% | - | 0 mm | - | - | - |
| 1788000389 | 18.89° C | 94% | - | 0 mm | - | - | - |
| 1787999785 | 19.44° C | 94% | - | 0 mm | - | - | - |
| 1787999543 | 19.44° C | 94% | - | 0 mm | - | - | - |
* Rain since midnight (hover to see other rain measurements)
** Current wind speed in m/s (hover to see current wind gust speed)